createdAt,value
2018-09-09T00:01:49.570Z,99820.90
2018-09-09T00:04:20.121Z,99830.05
2018-09-09T00:06:50.760Z,99823.70
2018-09-09T00:09:26.348Z,99819.57
2018-09-09T00:11:57.484Z,99821.45
2018-09-09T00:14:28.089Z,99821.19
2018-09-09T00:16:58.952Z,99825.23
2018-09-09T00:19:29.621Z,99819.17
2018-09-09T00:22:00.377Z,99815.80
2018-09-09T00:24:31.082Z,99819.08
2018-09-09T00:27:02.300Z,99818.81
2018-09-09T00:29:33.017Z,99824.34
2018-09-09T00:32:03.709Z,99816.39
2018-09-09T00:34:34.272Z,99820.08
2018-09-09T00:37:05.124Z,99824.04
2018-09-09T00:39:35.787Z,99823.20
2018-09-09T00:42:06.464Z,99827.04
2018-09-09T00:44:37.161Z,99831.27
2018-09-09T00:47:07.837Z,99822.02
2018-09-09T00:49:43.541Z,99831.75
2018-09-09T00:52:19.302Z,99825.70
2018-09-09T00:54:49.773Z,99829.33
2018-09-09T00:57:20.544Z,99827.53
2018-09-09T00:59:51.188Z,99826.11
2018-09-09T01:02:21.992Z,99822.50
2018-09-09T01:04:52.591Z,99820.63
2018-09-09T01:07:23.261Z,99825.42
2018-09-09T01:09:53.848Z,99817.20
2018-09-09T01:12:24.609Z,99814.14
2018-09-09T01:14:56.021Z,99819.92
2018-09-09T01:17:26.864Z,99817.16
2018-09-09T01:19:57.441Z,99808.85
2018-09-09T01:22:28.246Z,99819.33
2018-09-09T01:24:58.933Z,99823.41
2018-09-09T01:27:29.781Z,99825.73
2018-09-09T01:30:00.317Z,99824.89
2018-09-09T01:32:31.142Z,99824.37
2018-09-09T01:35:11.330Z,99825.19
2018-09-09T01:37:43.784Z,99828.31
2018-09-09T01:40:14.652Z,99822.62
2018-09-09T01:42:45.293Z,99823.31
2018-09-09T01:45:15.964Z,99820.98
2018-09-09T01:47:46.815Z,99823.86
2018-09-09T01:50:17.586Z,99821.47
2018-09-09T01:52:48.485Z,99818.34
2018-09-09T01:55:19.149Z,99823.61
2018-09-09T01:57:49.950Z,99823.56
2018-09-09T02:00:20.665Z,99830.09
2018-09-09T02:02:51.721Z,99837.27
2018-09-09T02:05:22.336Z,99836.67
2018-09-09T02:07:53.066Z,99831.39
2018-09-09T02:10:23.697Z,99838.34
2018-09-09T02:12:54.495Z,99840.43
2018-09-09T02:15:25.205Z,99840.15
2018-09-09T02:17:55.949Z,99837.94
2018-09-09T02:20:26.584Z,99841.52
2018-09-09T02:22:57.586Z,99842.64
2018-09-09T02:25:28.197Z,99845.12
2018-09-09T02:27:59.094Z,99845.70
2018-09-09T02:30:29.836Z,99843.63
2018-09-09T02:33:00.661Z,99843.73
2018-09-09T02:35:31.243Z,99851.50
2018-09-09T02:38:01.989Z,99848.87
2018-09-09T02:40:32.628Z,99848.37
2018-09-09T02:43:03.646Z,99848.14
2018-09-09T02:45:34.277Z,99849.27
2018-09-09T02:48:05.092Z,99855.68
2018-09-09T02:50:35.974Z,99844.09
2018-09-09T02:53:07.170Z,99849.47
2018-09-09T02:55:41.722Z,99856.00
2018-09-09T02:58:12.609Z,99855.42
2018-09-09T03:00:43.125Z,99857.14
2018-09-09T03:03:13.979Z,99853.47
2018-09-09T03:05:44.537Z,99852.95
2018-09-09T03:08:15.220Z,99848.08
2018-09-09T03:10:45.928Z,99852.11
2018-09-09T03:13:16.744Z,99858.64
2018-09-09T03:15:47.499Z,99862.57
2018-09-09T03:18:18.244Z,99859.66
2018-09-09T03:20:48.860Z,99857.38
2018-09-09T03:23:19.649Z,99848.63
2018-09-09T03:25:50.129Z,99853.72
2018-09-09T03:28:21.086Z,99852.30
2018-09-09T03:30:51.686Z,99851.18
2018-09-09T03:33:22.301Z,99856.00
2018-09-09T03:35:53.073Z,99850.91
2018-09-09T03:38:24.284Z,99854.63
2018-09-09T03:40:54.881Z,99848.37
2018-09-09T03:43:25.677Z,99854.14
2018-09-09T03:45:56.318Z,99854.82
2018-09-09T03:48:27.190Z,99858.34
2018-09-09T03:50:57.887Z,99860.48
2018-09-09T03:53:28.968Z,99860.36
2018-09-09T03:55:59.628Z,99868.12
2018-09-09T03:58:30.173Z,99870.27
2018-09-09T04:01:00.588Z,99877.50
2018-09-09T04:03:31.452Z,99875.40
2018-09-09T04:06:02.032Z,99876.33
2018-09-09T04:08:32.958Z,99875.72
2018-09-09T04:11:07.433Z,99875.19
2018-09-09T04:13:38.837Z,99879.98
2018-09-09T04:16:10.713Z,99876.20
2018-09-09T04:18:42.592Z,99882.65
2018-09-09T04:21:13.138Z,99881.04
2018-09-09T04:23:43.993Z,99884.06
2018-09-09T04:26:14.568Z,99887.86
2018-09-09T04:28:45.373Z,99886.04
2018-09-09T04:31:15.949Z,99893.35
2018-09-09T04:33:46.740Z,99888.81
2018-09-09T04:36:17.295Z,99884.01
2018-09-09T04:38:47.777Z,99885.64
2018-09-09T04:41:18.380Z,99889.61
2018-09-09T04:43:49.362Z,99884.27
2018-09-09T04:46:20.001Z,99883.39
2018-09-09T04:48:50.869Z,99888.45
2018-09-09T04:51:21.573Z,99883.28
2018-09-09T04:53:52.432Z,99894.45
2018-09-09T04:56:23.049Z,99889.64
2018-09-09T04:58:54.045Z,99887.84
2018-09-09T05:01:24.640Z,99887.81
2018-09-09T05:03:55.305Z,99893.21
2018-09-09T05:06:25.836Z,99893.43
2018-09-09T05:08:56.845Z,99892.40
2018-09-09T05:11:27.492Z,99892.38
2018-09-09T05:13:58.388Z,99893.80
2018-09-09T05:16:29.001Z,99897.91
2018-09-09T05:18:59.729Z,99898.35
2018-09-09T05:21:30.285Z,99895.37
2018-09-09T05:24:01.009Z,99902.66
2018-09-09T05:26:31.580Z,99894.55
2018-09-09T05:29:02.498Z,99898.80
2018-09-09T05:31:33.156Z,99895.59
2018-09-09T05:34:06.387Z,99897.74
2018-09-09T05:36:37.405Z,99899.00
2018-09-09T05:39:13.453Z,99907.17
2018-09-09T05:41:44.255Z,99904.77
2018-09-09T05:44:17.592Z,99905.94
2018-09-09T05:46:51.817Z,99906.45
2018-09-09T05:49:22.829Z,99904.47
2018-09-09T05:51:53.985Z,99900.77
2018-09-09T05:54:24.477Z,99898.73
2018-09-09T05:56:55.039Z,99900.00
2018-09-09T05:59:25.836Z,99899.88
2018-09-09T06:01:56.778Z,99901.06
2018-09-09T06:04:27.842Z,99895.14
2018-09-09T06:06:58.549Z,99906.22
2018-09-09T06:09:29.613Z,99910.99
2018-09-09T06:12:14.496Z,99904.41
2018-09-09T06:14:45.257Z,99907.22
2018-09-09T06:17:15.945Z,99911.77
2018-09-09T06:19:46.758Z,99909.36
2018-09-09T06:22:17.411Z,99912.02
2018-09-09T06:24:48.172Z,99916.00
2018-09-09T06:27:18.733Z,99909.02
2018-09-09T06:29:49.569Z,99920.20
2018-09-09T06:32:20.168Z,99918.56
2018-09-09T06:34:51.139Z,99913.94
2018-09-09T06:37:21.852Z,99911.54
2018-09-09T06:39:52.919Z,99912.17
2018-09-09T06:42:23.581Z,99917.52
2018-09-09T06:44:54.523Z,99914.23
2018-09-09T06:47:25.185Z,99912.98
2018-09-09T06:49:56.285Z,99915.05
2018-09-09T06:52:26.920Z,99918.98
2018-09-09T06:54:57.650Z,99923.13
2018-09-09T06:57:28.377Z,99927.72
2018-09-09T06:59:59.381Z,99924.23
2018-09-09T07:02:30.002Z,99931.75
2018-09-09T07:05:00.720Z,99930.27
2018-09-09T07:07:31.359Z,99931.48
2018-09-09T07:10:02.330Z,99924.75
2018-09-09T07:12:37.251Z,99927.79
2018-09-09T07:15:07.910Z,99922.14
2018-09-09T07:17:38.501Z,99924.64
2018-09-09T07:20:09.280Z,99926.16
2018-09-09T07:22:39.976Z,99923.34
2018-09-09T07:25:10.881Z,99918.97
2018-09-09T07:27:41.498Z,99914.16
2018-09-09T07:30:12.477Z,99910.94
2018-09-09T07:32:43.024Z,99910.02
2018-09-09T07:35:14.708Z,99907.45
2018-09-09T07:37:45.397Z,99899.12
2018-09-09T07:40:16.305Z,99901.70
2018-09-09T07:42:47.009Z,99899.61
2018-09-09T07:45:17.777Z,99889.59
2018-09-09T07:47:48.588Z,99892.99
2018-09-09T07:50:19.453Z,99898.34
2018-09-09T07:52:50.097Z,99891.93
2018-09-09T07:55:20.923Z,99889.95
2018-09-09T07:57:51.650Z,99889.25
2018-09-09T08:00:22.637Z,99878.83
2018-09-09T08:02:53.228Z,99881.64
2018-09-09T08:05:24.093Z,99878.75
2018-09-09T08:07:54.729Z,99884.64
2018-09-09T08:10:25.541Z,99885.42
2018-09-09T08:12:56.274Z,99880.02
2018-09-09T08:15:26.820Z,99875.53
2018-09-09T08:17:57.501Z,99875.87
2018-09-09T08:20:28.227Z,99873.04
2018-09-09T08:22:58.629Z,99866.96
2018-09-09T08:25:29.283Z,99870.16
2018-09-09T08:27:59.911Z,99867.88
2018-09-09T08:30:30.464Z,99869.50
2018-09-09T08:33:01.077Z,99869.89
2018-09-09T08:35:31.865Z,99871.98
2018-09-09T08:38:02.542Z,99871.29
2018-09-09T08:40:33.209Z,99862.47
2018-09-09T08:43:04.375Z,99857.17
2018-09-09T08:45:35.117Z,99861.38
2018-09-09T08:48:05.901Z,99869.62
2018-09-09T08:50:36.821Z,99859.63
2018-09-09T08:53:07.325Z,99854.73
2018-09-09T08:55:38.361Z,99858.20
2018-09-09T08:58:08.949Z,99858.85
2018-09-09T09:00:39.755Z,99847.01
2018-09-09T09:03:10.317Z,99847.20
2018-09-09T09:05:41.082Z,99845.65
2018-09-09T09:08:11.815Z,99845.05
2018-09-09T09:10:42.608Z,99849.72
2018-09-09T09:13:13.791Z,99838.88
2018-09-09T09:15:44.869Z,99834.53
2018-09-09T09:18:15.814Z,99837.72
2018-09-09T09:20:46.730Z,99820.43
2018-09-09T09:23:17.543Z,99821.81
2018-09-09T09:25:52.780Z,99810.36
2018-09-09T09:28:24.124Z,99802.52
2018-09-09T09:30:55.158Z,99811.31
2018-09-09T09:33:25.913Z,99803.53
2018-09-09T09:35:56.572Z,99810.72
2018-09-09T09:38:27.325Z,99801.44
2018-09-09T09:40:58.369Z,99802.41
2018-09-09T09:43:28.941Z,99791.90
2018-09-09T09:45:59.837Z,99785.08
2018-09-09T09:48:30.577Z,99783.13
2018-09-09T09:51:01.081Z,99782.75
2018-09-09T09:53:31.715Z,99775.65
2018-09-09T09:56:02.528Z,99777.90
2018-09-09T09:58:35.033Z,99785.23
2018-09-09T10:01:05.893Z,99779.36
2018-09-09T10:03:36.533Z,99776.81
2018-09-09T10:06:07.331Z,99769.44
2018-09-09T10:08:37.581Z,99762.53
2018-09-09T10:11:08.749Z,99773.16
2018-09-09T10:13:39.453Z,99769.88
2018-09-09T10:16:10.249Z,99766.55
2018-09-09T10:18:41.204Z,99765.85
2018-09-09T10:21:11.864Z,99759.52
2018-09-09T10:23:42.703Z,99761.12
2018-09-09T10:26:13.623Z,99763.28
2018-09-09T10:28:44.406Z,99758.77
2018-09-09T10:31:15.145Z,99757.98
2018-09-09T10:33:45.824Z,99755.06
2018-09-09T10:36:16.596Z,99751.03
2018-09-09T10:38:47.232Z,99747.77
2018-09-09T10:41:18.129Z,99750.68
2018-09-09T10:43:48.693Z,99751.45
2018-09-09T10:46:19.645Z,99747.20
2018-09-09T10:48:50.302Z,99751.66
2018-09-09T10:51:21.033Z,99747.33
2018-09-09T10:53:51.633Z,99736.98
2018-09-09T10:56:22.689Z,99740.13
2018-09-09T10:58:53.349Z,99736.47
2018-09-09T11:01:24.161Z,99729.52
2018-09-09T11:03:54.706Z,99738.12
2018-09-09T11:06:25.549Z,99731.34
2018-09-09T11:08:56.069Z,99727.12
2018-09-09T11:11:27.014Z,99723.84
2018-09-09T11:13:57.497Z,99726.74
2018-09-09T11:16:28.408Z,99722.11
2018-09-09T11:18:59.440Z,99720.13
2018-09-09T11:21:30.413Z,99715.91
2018-09-09T11:24:01.044Z,99720.09
2018-09-09T11:26:31.838Z,99711.58
2018-09-09T11:29:02.490Z,99708.40
2018-09-09T11:31:33.344Z,99699.98
2018-09-09T11:34:03.957Z,99703.05
2018-09-09T11:36:34.721Z,99706.69
2018-09-09T11:39:06.841Z,99700.66
2018-09-09T11:41:37.678Z,99697.67
2018-09-09T11:44:08.470Z,99694.97
2018-09-09T11:46:39.249Z,99698.59
2018-09-09T11:49:09.881Z,99701.94
2018-09-09T11:51:40.657Z,99692.29
2018-09-09T11:54:11.330Z,99689.92
2018-09-09T11:56:42.132Z,99691.06
2018-09-09T11:59:12.849Z,99689.18
2018-09-09T12:01:43.977Z,99688.57
2018-09-09T12:04:14.690Z,99688.48
2018-09-09T12:06:45.613Z,99666.56
2018-09-09T12:09:16.265Z,99672.60
2018-09-09T12:11:47.422Z,99678.94
2018-09-09T12:14:18.009Z,99667.01
2018-09-09T12:16:48.765Z,99667.86
2018-09-09T12:19:19.391Z,99662.34
2018-09-09T12:21:50.385Z,99667.20
2018-09-09T12:24:21.126Z,99668.39
2018-09-09T12:26:51.973Z,99672.25
2018-09-09T12:29:22.553Z,99673.31
2018-09-09T12:31:53.538Z,99671.50
2018-09-09T12:34:24.150Z,99667.26
2018-09-09T12:36:54.732Z,99667.44
2018-09-09T12:39:25.445Z,99670.23
2018-09-09T12:41:56.282Z,99666.52
2018-09-09T12:44:32.060Z,99662.49
2018-09-09T12:47:07.791Z,99672.09
2018-09-09T12:49:38.465Z,99661.36
2018-09-09T12:52:09.169Z,99672.38
2018-09-09T12:54:39.806Z,99662.84
2018-09-09T12:57:10.590Z,99658.47
2018-09-09T12:59:41.390Z,99664.72
2018-09-09T13:02:12.173Z,99655.72
2018-09-09T13:04:42.788Z,99656.85
2018-09-09T13:07:13.628Z,99662.04
2018-09-09T13:09:44.313Z,99657.48
2018-09-09T13:12:15.096Z,99651.14
2018-09-09T13:14:45.709Z,99649.08
2018-09-09T13:17:16.445Z,99643.89
2018-09-09T13:19:47.138Z,99648.85
2018-09-09T13:22:17.929Z,99641.51
2018-09-09T13:24:48.544Z,99644.27
2018-09-09T13:27:19.228Z,99643.66
2018-09-09T13:29:49.862Z,99642.77
2018-09-09T13:32:20.822Z,99646.40
2018-09-09T13:34:51.637Z,99654.68
2018-09-09T13:37:22.387Z,99652.72
2018-09-09T13:39:52.949Z,99652.25
2018-09-09T13:42:23.797Z,99648.06
2018-09-09T13:44:54.432Z,99650.48
2018-09-09T13:47:25.293Z,99651.34
2018-09-09T13:49:55.957Z,99656.25
2018-09-09T13:52:26.676Z,99656.61
2018-09-09T13:54:57.053Z,99654.36
2018-09-09T13:57:27.713Z,99660.52
2018-09-09T13:59:58.305Z,99657.96
2018-09-09T14:02:29.239Z,99665.47
2018-09-09T14:04:59.889Z,99668.03
2018-09-09T14:07:30.745Z,99661.95
2018-09-09T14:10:01.361Z,99662.23
2018-09-09T14:12:32.360Z,99660.04
2018-09-09T14:15:03.327Z,99666.84
2018-09-09T14:17:34.120Z,99669.03
2018-09-09T14:20:04.889Z,99654.99
2018-09-09T14:22:35.578Z,99665.73
2018-09-09T14:25:06.321Z,99663.52
2018-09-09T14:27:37.364Z,99657.14
2018-09-09T14:30:08.026Z,99662.34
2018-09-09T14:32:38.792Z,99659.61
2018-09-09T14:35:09.449Z,99652.09
2018-09-09T14:37:40.313Z,99654.69
2018-09-09T14:40:11.065Z,99655.70
2018-09-09T14:42:41.809Z,99655.97
2018-09-09T14:45:12.386Z,99656.17
2018-09-09T14:47:43.176Z,99655.11
2018-09-09T14:50:13.910Z,99656.83
2018-09-09T14:52:44.981Z,99659.91
2018-09-09T14:55:15.785Z,99655.95
2018-09-09T14:57:46.627Z,99657.08
2018-09-09T15:00:17.369Z,99662.78
2018-09-09T15:02:48.365Z,99660.77
2018-09-09T15:05:18.917Z,99666.99
2018-09-09T15:07:49.717Z,99673.84
2018-09-09T15:10:20.411Z,99672.23
2018-09-09T15:12:51.521Z,99677.17
2018-09-09T15:15:22.129Z,99677.69
2018-09-09T15:17:53.113Z,99683.22
2018-09-09T15:20:23.754Z,99684.55
2018-09-09T15:22:54.481Z,99688.09
2018-09-09T15:25:25.122Z,99687.22
2018-09-09T15:27:55.724Z,99687.79
2018-09-09T15:30:26.489Z,99690.31
2018-09-09T15:32:57.204Z,99697.02
2018-09-09T15:35:27.845Z,99695.13
2018-09-09T15:37:58.695Z,99697.30
2018-09-09T15:40:29.261Z,99692.84
2018-09-09T15:43:00.253Z,99704.53
2018-09-09T15:45:30.891Z,99700.91
2018-09-09T15:48:02.481Z,99694.66
2018-09-09T15:50:33.265Z,99704.16
2018-09-09T15:53:03.884Z,99703.66
2018-09-09T15:55:34.441Z,99702.66
2018-09-09T15:58:05.301Z,99700.29
2018-09-09T16:00:36.073Z,99705.89
2018-09-09T16:03:06.872Z,99710.31
2018-09-09T16:05:37.517Z,99709.17
2018-09-09T16:08:08.180Z,99716.63
2018-09-09T16:10:38.848Z,99716.59
2018-09-09T16:13:09.674Z,99717.68
2018-09-09T16:15:40.338Z,99723.72
2018-09-09T16:18:11.323Z,99719.05
2018-09-09T16:20:41.966Z,99724.33
2018-09-09T16:23:12.818Z,99721.52
2018-09-09T16:25:43.439Z,99727.27
2018-09-09T16:28:14.072Z,99724.99
2018-09-09T16:30:44.672Z,99725.27
2018-09-09T16:33:15.352Z,99722.89
2018-09-09T16:35:46.032Z,99725.13
2018-09-09T16:38:16.849Z,99727.52
2018-09-09T16:40:47.546Z,99728.50
2018-09-09T16:43:18.230Z,99728.73
2018-09-09T16:45:48.844Z,99728.14
2018-09-09T16:48:19.773Z,99733.86
2018-09-09T16:50:50.484Z,99735.95
2018-09-09T16:53:21.520Z,99736.02
2018-09-09T16:55:52.189Z,99733.74
2018-09-09T16:58:22.949Z,99741.19
2018-09-09T17:00:53.600Z,99738.22
2018-09-09T17:03:24.362Z,99734.42
2018-09-09T17:05:54.908Z,99742.66
2018-09-09T17:08:25.701Z,99746.39
2018-09-09T17:10:56.115Z,99748.55
2018-09-09T17:13:26.990Z,99757.14
2018-09-09T17:15:57.741Z,99761.05
2018-09-09T17:18:28.421Z,99759.75
2018-09-09T17:20:59.057Z,99766.28
2018-09-09T17:23:30.021Z,99775.91
2018-09-09T17:26:00.716Z,99777.62
2018-09-09T17:28:31.836Z,99776.89
2018-09-09T17:31:02.652Z,99778.88
2018-09-09T17:33:33.915Z,99783.80
2018-09-09T17:36:04.913Z,99785.84
2018-09-09T17:38:35.872Z,99787.52
2018-09-09T17:41:06.890Z,99788.59
2018-09-09T17:43:38.037Z,99794.70
2018-09-09T17:46:08.883Z,99797.09
2018-09-09T17:48:40.292Z,99799.70
2018-09-09T17:51:11.220Z,99796.77
2018-09-09T17:53:42.383Z,99800.63
2018-09-09T17:56:13.269Z,99807.65
2018-09-09T17:58:44.253Z,99800.73
2018-09-09T18:01:15.151Z,99808.95
2018-09-09T18:03:46.086Z,99818.27
2018-09-09T18:06:16.982Z,99813.42
2018-09-09T18:08:48.188Z,99812.52
2018-09-09T18:11:19.079Z,99816.99
2018-09-09T18:13:50.435Z,99821.61
2018-09-09T18:16:21.602Z,99827.64
2018-09-09T18:18:52.803Z,99835.61
2018-09-09T18:21:23.761Z,99838.47
2018-09-09T18:23:54.848Z,99835.48
2018-09-09T18:26:25.770Z,99839.95
2018-09-09T18:28:56.615Z,99834.96
2018-09-09T18:31:27.207Z,99836.78
2018-09-09T18:33:58.295Z,99836.41
2018-09-09T18:36:29.222Z,99840.61
2018-09-09T18:39:00.496Z,99838.76
2018-09-09T18:41:31.565Z,99836.22
2018-09-09T18:44:02.621Z,99837.63
2018-09-09T18:46:33.491Z,99833.16
2018-09-09T18:49:04.562Z,99832.39
2018-09-09T18:51:39.662Z,99833.54
2018-09-09T18:54:12.761Z,99836.00
2018-09-09T18:56:45.104Z,99838.55
2018-09-09T18:59:45.489Z,99833.34
2018-09-09T19:02:17.525Z,99837.69
2018-09-09T19:04:49.329Z,99836.73
2018-09-09T19:07:21.575Z,99839.89
2018-09-09T19:09:52.816Z,99839.56
2018-09-09T19:12:23.709Z,99840.77
2018-09-09T19:14:54.815Z,99841.87
2018-09-09T19:17:25.748Z,99842.44
2018-09-09T19:19:56.855Z,99835.60
2018-09-09T19:22:28.564Z,99832.89
2018-09-09T19:25:00.348Z,99832.80
2018-09-09T19:27:31.230Z,99837.30
2018-09-09T19:30:05.040Z,99833.61
2018-09-09T19:32:35.908Z,99837.99
2018-09-09T19:35:07.139Z,99838.72
2018-09-09T19:37:38.098Z,99838.42
2018-09-09T19:40:08.990Z,99838.48
2018-09-09T19:42:40.267Z,99838.59
2018-09-09T19:45:11.460Z,99837.42
2018-09-09T19:47:42.491Z,99844.93
2018-09-09T19:50:13.656Z,99844.42
2018-09-09T19:52:44.562Z,99849.16
2018-09-09T19:55:15.456Z,99849.23
2018-09-09T19:57:46.369Z,99854.77
2018-09-09T20:00:18.227Z,99861.72
2018-09-09T20:02:49.083Z,99863.73
2018-09-09T20:05:20.420Z,99860.62
2018-09-09T20:07:51.385Z,99870.55
2018-09-09T20:10:22.264Z,99867.98
2018-09-09T20:12:53.079Z,99864.06
2018-09-09T20:15:24.152Z,99871.69
2018-09-09T20:17:54.947Z,99861.02
2018-09-09T20:20:26.051Z,99867.39
2018-09-09T20:22:57.152Z,99872.47
2018-09-09T20:25:28.219Z,99880.75
2018-09-09T20:27:58.745Z,99883.18
2018-09-09T20:30:29.516Z,99886.20
2018-09-09T20:33:00.149Z,99892.77
2018-09-09T20:35:30.981Z,99890.68
2018-09-09T20:38:01.637Z,99890.24
2018-09-09T20:40:32.441Z,99885.63
2018-09-09T20:43:02.789Z,99889.94
2018-09-09T20:45:33.416Z,99891.39
2018-09-09T20:48:03.889Z,99890.39
2018-09-09T20:50:34.635Z,99898.94
2018-09-09T20:53:05.253Z,99894.66
2018-09-09T20:55:36.152Z,99897.55
2018-09-09T20:58:06.897Z,99898.75
2018-09-09T21:00:37.735Z,99894.29
2018-09-09T21:03:08.334Z,99901.23
2018-09-09T21:05:38.950Z,99894.61
2018-09-09T21:08:09.556Z,99895.36
2018-09-09T21:10:40.184Z,99899.73
2018-09-09T21:13:10.768Z,99902.38
2018-09-09T21:15:41.800Z,99900.52
2018-09-09T21:18:12.359Z,99889.88
2018-09-09T21:20:43.321Z,99897.48
2018-09-09T21:23:14.008Z,99891.31
2018-09-09T21:25:44.717Z,99899.48
2018-09-09T21:28:15.179Z,99891.01
2018-09-09T21:30:51.140Z,99900.23
2018-09-09T21:33:21.823Z,99898.44
2018-09-09T21:35:53.003Z,99892.27
2018-09-09T21:38:23.568Z,99901.53
2018-09-09T21:40:54.178Z,99897.17
2018-09-09T21:43:24.831Z,99891.52
2018-09-09T21:45:55.693Z,99890.31
2018-09-09T21:48:26.274Z,99896.70
2018-09-09T21:50:56.915Z,99904.50
2018-09-09T21:53:27.534Z,99899.57
2018-09-09T21:55:58.206Z,99890.13
2018-09-09T21:58:28.800Z,99887.61
2018-09-09T22:01:04.621Z,99880.30
2018-09-09T22:03:35.114Z,99888.50
2018-09-09T22:06:05.780Z,99883.05
2018-09-09T22:08:36.356Z,99880.02
2018-09-09T22:11:08.197Z,99881.88
2018-09-09T22:13:38.929Z,99885.33
2018-09-09T22:16:09.384Z,99890.16
2018-09-09T22:18:39.895Z,99887.39
2018-09-09T22:21:10.612Z,99892.93
2018-09-09T22:23:41.270Z,99890.57
2018-09-09T22:26:11.937Z,99894.57
2018-09-09T22:28:42.529Z,99889.52
2018-09-09T22:31:13.263Z,99899.22
2018-09-09T22:33:43.892Z,99905.34
2018-09-09T22:36:14.660Z,99905.66
2018-09-09T22:38:45.337Z,99904.69
2018-09-09T22:41:16.137Z,99909.87
2018-09-09T22:43:46.639Z,99903.59
2018-09-09T22:46:17.186Z,99907.80
2018-09-09T22:48:47.680Z,99903.59
2018-09-09T22:51:18.376Z,99901.95
2018-09-09T22:53:48.913Z,99900.59
2018-09-09T22:56:19.522Z,99909.61
2018-09-09T22:58:50.037Z,99916.78
2018-09-09T23:01:21.011Z,99916.47
2018-09-09T23:03:51.704Z,99917.04
2018-09-09T23:06:22.423Z,99924.05
2018-09-09T23:08:53.013Z,99918.59
2018-09-09T23:11:23.702Z,99910.92
2018-09-09T23:13:54.218Z,99910.99
2018-09-09T23:16:24.889Z,99912.19
2018-09-09T23:18:55.359Z,99907.98
2018-09-09T23:21:26.025Z,99914.60
2018-09-09T23:23:56.910Z,99920.64
2018-09-09T23:26:27.784Z,99920.08
2018-09-09T23:28:58.273Z,99921.40
2018-09-09T23:31:29.028Z,99922.02
2018-09-09T23:33:59.651Z,99915.63
2018-09-09T23:36:30.377Z,99920.13
2018-09-09T23:39:01.064Z,99927.79
2018-09-09T23:41:31.768Z,99926.95
2018-09-09T23:44:02.460Z,99924.42
2018-09-09T23:46:33.272Z,99933.09
2018-09-09T23:49:03.955Z,99922.00
2018-09-09T23:51:34.801Z,99930.77
2018-09-09T23:54:05.496Z,99930.96
2018-09-09T23:56:36.089Z,99919.94
2018-09-09T23:59:06.798Z,99925.70
